| time (UTC) | temp C | wind direction | speed KPH | gust KPH | rain 1hr cm | rain 24hr cm | rain mn cm | humidity % | barometer mb |
| 20260906131019 | 27 | 248 | 6.4 | 12.9 | 0.00 | 0.13 | 0.00 | 84 | 1011.5 |
| 20260906130019 | 27 | 270 | 3.2 | 6.4 | 0.00 | 0.13 | 0.00 | 85 | 1011.7 |
| 20260906125019 | 26 | 225 | 6.4 | 11.3 | 0.00 | 0.13 | 0.00 | 85 | 1011.4 |
| 20260906124019 | 26 | 248 | 4.8 | 9.7 | 0.00 | 0.13 | 0.00 | 86 | 1011.3 |
| 20260906123019 | 26 | 248 | 4.8 | 11.3 | 0.00 | 0.13 | 0.00 | 86 | 1011.3 |
| 20260906122019 | 26 | 248 | 4.8 | 8.0 | 0.00 | 0.13 | 0.00 | 86 | 1011.2 |
| 20260906121039 | 26 | 248 | 3.2 | 6.4 | 0.00 | 0.13 | 0.00 | 87 | 1011.3 |
| 20260906120019 | 26 | 0.0 | 3.2 | 0.00 | 0.13 | 0.00 | 87 | 1011.5 | |
| 20260906115019 | 26 | 0.0 | 0.0 | 0.00 | 0.13 | 0.00 | 87 | 1011.5 | |
| 20260906114019 | 26 | 0.0 | 1.6 | 0.00 | 0.13 | 0.00 | 87 | 1011.4 | |
| 20260906113019 | 26 | 0.0 | 4.8 | 0.00 | 0.13 | 0.00 | 87 | 1011.3 | |
| 20260906112019 | 26 | 0.0 | 0.0 | 0.00 | 0.13 | 0.00 | 87 | 1011.2 | |
| 20260906111019 | 26 | 225 | 1.6 | 3.2 | 0.00 | 0.13 | 0.00 | 87 | 1010.8 |
| 20260906110019 | 26 | 225 | 4.8 | 8.0 | 0.00 | 0.13 | 0.00 | 87 | 1010.6 |
| 20260906105019 | 26 | 225 | 4.8 | 8.0 | 0.00 | 0.13 | 0.00 | 87 | 1010.5 |
| 20260906104039 | 26 | 225 | 6.4 | 9.7 | 0.00 | 0.13 | 0.00 | 87 | 1010.3 |
| 20260906103019 | 26 | 225 | 6.4 | 11.3 | 0.00 | 0.13 | 0.00 | 87 | 1010.2 |
| 20260906102019 | 26 | 225 | 4.8 | 8.0 | 0.00 | 0.13 | 0.00 | 87 | 1010.2 |
| 20260906101019 | 26 | 225 | 6.4 | 11.3 | 0.00 | 0.13 | 0.00 | 87 | 1010.2 |
| 20260906100019 | 26 | 225 | 6.4 | 9.7 | 0.00 | 0.13 | 0.00 | 87 | 1010.2 |
| 20260906095019 | 26 | 225 | 4.8 | 8.0 | 0.00 | 0.13 | 0.00 | 87 | 1010.2 |
| 20260906094019 | 26 | 248 | 4.8 | 6.4 | 0.00 | 0.13 | 0.00 | 86 | 1010.2 |
| 20260906093019 | 26 | 248 | 3.2 | 6.4 | 0.00 | 0.13 | 0.00 | 86 | 1010.2 |
| 20260906092019 | 26 | 225 | 3.2 | 6.4 | 0.00 | 0.13 | 0.00 | 86 | 1010.2 |
| 20260906091019 | 26 | 225 | 3.2 | 6.4 | 0.00 | 0.13 | 0.00 | 86 | 1010.2 |
| 20260906090019 | 26 | 225 | 4.8 | 6.4 | 0.00 | 0.13 | 0.00 | 87 | 1010.2 |
| 20260906085019 | 26 | 225 | 6.4 | 8.0 | 0.00 | 0.13 | 0.00 | 86 | 1010.2 |
| 20260906084019 | 26 | 225 | 6.4 | 11.3 | 0.00 | 0.13 | 0.00 | 86 | 1010.0 |
| 20260906083039 | 26 | 225 | 4.8 | 8.0 | 0.00 | 0.13 | 0.00 | 86 | 1010.1 |
| 20260906082019 | 26 | 225 | 4.8 | 8.0 | 0.00 | 0.13 | 0.00 | 86 | 1010.0 |
| 20260906081019 | 26 | 248 | 4.8 | 6.4 | 0.00 | 0.13 | 0.00 | 86 | 1009.9 |
| 20260906080042 | 26 | 225 | 4.8 | 8.0 | 0.00 | 0.13 | 0.00 | 86 | 1009.9 |
| 20260906075019 | 26 | 203 | 3.2 | 6.4 | 0.00 | 0.13 | 0.00 | 85 | 1010.1 |
| 20260906074019 | 26 | 225 | 1.6 | 3.2 | 0.00 | 0.13 | 0.00 | 86 | 1010.2 |
| 20260906073039 | 26 | 225 | 3.2 | 4.8 | 0.00 | 0.13 | 0.00 | 85 | 1010.0 |
| 20260906072019 | 26 | 225 | 3.2 | 6.4 | 0.00 | 0.13 | 0.00 | 85 | 1010.0 |
| 20260906071019 | 26 | 248 | 3.2 | 8.0 | 0.00 | 0.13 | 0.00 | 85 | 1010.0 |
| 20260906070019 | 26 | 225 | 4.8 | 6.4 | 0.00 | 0.13 | 0.00 | 85 | 1010.0 |
| 20260906065019 | 26 | 225 | 3.2 | 4.8 | 0.00 | 0.13 | 0.00 | 85 | 1010.1 |
| 20260906064039 | 26 | 225 | 4.8 | 6.4 | 0.00 | 0.13 | 0.00 | 85 | 1010.0 |
| 20260906063039 | 26 | 248 | 3.2 | 4.8 | 0.00 | 0.13 | 0.00 | 85 | 1010.3 |
| 20260906062019 | 27 | 225 | 3.2 | 6.4 | 0.00 | 0.13 | 0.00 | 85 | 1010.4 |
| 20260906061019 | 27 | 248 | 3.2 | 6.4 | 0.00 | 0.13 | 0.00 | 85 | 1010.4 |
| 20260906060019 | 27 | 248 | 1.6 | 6.4 | 0.00 | 0.13 | 0.00 | 85 | 1010.6 |
| 20260906055019 | 27 | 225 | 3.2 | 6.4 | 0.00 | 0.13 | 0.00 | 85 | 1010.6 |
| 20260906054019 | 27 | 248 | 3.2 | 6.4 | 0.00 | 0.13 | 0.00 | 85 | 1010.8 |
| 20260906053019 | 27 | 225 | 4.8 | 8.0 | 0.00 | 0.13 | 0.00 | 85 | 1010.8 |
| 20260906052019 | 27 | 248 | 4.8 | 8.0 | 0.00 | 0.13 | 0.00 | 85 | 1010.6 |
| 20260906051019 | 27 | 225 | 4.8 | 8.0 | 0.00 | 0.13 | 0.00 | 85 | 1010.7 |
| 20260906050019 | 27 | 203 | 6.4 | 8.0 | 0.00 | 0.13 | 0.00 | 85 | 1010.8 |
| 20260906045039 | 27 | 203 | 4.8 | 11.3 | 0.00 | 0.13 | 0.00 | 85 | 1010.7 |
| 20260906044019 | 27 | 203 | 4.8 | 8.0 | 0.00 | 0.13 | 0.00 | 85 | 1010.7 |
| 20260906043019 | 27 | 203 | 4.8 | 9.7 | 0.00 | 0.13 | 0.00 | 86 | 1010.8 |
| 20260906042019 | 27 | 225 | 4.8 | 6.4 | 0.00 | 0.13 | 0.00 | 86 | 1011.0 |
| 20260906041039 | 27 | 180 | 3.2 | 4.8 | 0.00 | 0.13 | 0.00 | 86 | 1011.2 |
| 20260906040039 | 27 | 203 | 4.8 | 9.7 | 0.00 | 0.13 | 0.13 | 86 | 1011.2 |
| 20260906035019 | 27 | 203 | 4.8 | 11.3 | 0.00 | 0.13 | 0.13 | 86 | 1011.2 |
| 20260906034059 | 27 | 225 | 6.4 | 8.0 | 0.00 | 0.13 | 0.13 | 86 | 1011.3 |
| 20260906033019 | 28 | 225 | 6.4 | 9.7 | 0.00 | 0.13 | 0.13 | 86 | 1011.3 |
| 20260906032019 | 28 | 203 | 4.8 | 9.7 | 0.00 | 0.13 | 0.13 | 86 | 1011.3 |
| 20260906031019 | 28 | 203 | 6.4 | 9.7 | 0.00 | 0.13 | 0.13 | 86 | 1011.5 |
| 20260906030019 | 28 | 203 | 6.4 | 9.7 | 0.00 | 0.13 | 0.13 | 86 | 1011.7 |
| 20260906025019 | 27 | 0.0 | 1.6 | 0.00 | 0.13 | 0.13 | 85 | 1011.7 | |
| 20260906024022 | 27 | 0.0 | 3.2 | 0.00 | 0.13 | 0.13 | 85 | 1011.6 | |
| 20260906023019 | 28 | 180 | 1.6 | 4.8 | 0.00 | 0.13 | 0.13 | 85 | 1011.3 |
| 20260906022019 | 28 | 203 | 1.6 | 3.2 | 0.00 | 0.13 | 0.13 | 85 | 1011.4 |
| 20260906021039 | 28 | 180 | 3.2 | 6.4 | 0.00 | 0.13 | 0.13 | 84 | 1011.3 |
| 20260906020019 | 28 | 180 | 1.6 | 6.4 | 0.00 | 0.13 | 0.13 | 84 | 1011.3 |
| 20260906015019 | 28 | 180 | 3.2 | 11.3 | 0.00 | 0.13 | 0.13 | 83 | 1011.1 |
| 20260906014403 | 28 | 180 | 3.2 | 6.4 | 0.00 | 0.13 | 0.13 | 83 | 1011.0 |
| 20260906013025 | 28 | 180 | 1.6 | 6.4 | 0.00 | 0.13 | 0.13 | 82 | 1010.7 |
| 20260906012059 | 28 | 180 | 4.8 | 9.7 | 0.00 | 0.13 | 0.13 | 81 | 1010.4 |
| 20260906011019 | 28 | 203 | 3.2 | 6.4 | 0.00 | 0.13 | 0.13 | 81 | 1010.4 |
| 20260906010019 | 28 | 203 | 3.2 | 8.0 | 0.00 | 0.13 | 0.13 | 80 | 1010.5 |
| 20260906005021 | 28 | 180 | 3.2 | 8.0 | 0.00 | 0.13 | 0.13 | 79 | 1010.4 |
| 20260906004019 | 28 | 180 | 1.6 | 4.8 | 0.00 | 0.13 | 0.13 | 79 | 1010.4 |
| 20260906003019 | 28 | 180 | 1.6 | 6.4 | 0.00 | 0.13 | 0.13 | 79 | 1010.2 |
| 20260906002019 | 28 | 158 | 1.6 | 4.8 | 0.00 | 0.13 | 0.13 | 79 | 1009.9 |
| 20260906001033 | 28 | 180 | 3.2 | 6.4 | 0.00 | 0.13 | 0.13 | 79 | 1009.8 |
| 20260906000020 | 28 | 0.0 | 3.2 | 0.00 | 0.13 | 0.13 | 79 | 1009.8 | |
| 20260905235019 | 28 | 0.0 | 0.0 | 0.00 | 0.13 | 0.13 | 80 | 1009.6 | |
| 20260905234019 | 29 | 158 | 1.6 | 4.8 | 0.00 | 0.13 | 0.13 | 79 | 1009.8 |
| 20260905233839 | 29 | 0.0 | 3.2 | 0.00 | 0.13 | 0.13 | 79 | 1009.7 | |
| 20260905232019 | 30 | 180 | 3.2 | 6.4 | 0.00 | 0.13 | 0.13 | 78 | 1009.7 |
| 20260905231019 | 30 | 180 | 3.2 | 8.0 | 0.00 | 0.13 | 0.13 | 77 | 1009.7 |
| 20260905230019 | 30 | 203 | 6.4 | 11.3 | 0.00 | 0.13 | 0.13 | 78 | 1009.9 |
| 20260905225019 | 30 | 180 | 4.8 | 11.3 | 0.00 | 0.66 | 0.13 | 78 | 1010.0 |
| 20260905224019 | 29 | 180 | 4.8 | 11.3 | 0.00 | 0.66 | 0.13 | 78 | 1010.2 |
| 20260905223019 | 30 | 203 | 6.4 | 11.3 | 0.00 | 0.66 | 0.13 | 76 | 1010.3 |
| 20260905222019 | 30 | 203 | 9.7 | 12.9 | 0.00 | 0.66 | 0.13 | 75 | 1010.5 |
| 20260905221039 | 31 | 203 | 3.2 | 6.4 | 0.00 | 0.66 | 0.13 | 74 | 1010.4 |
| 20260905220019 | 31 | 203 | 3.2 | 8.0 | 0.00 | 0.66 | 0.13 | 73 | 1010.3 |
| 20260905215039 | 31 | 203 | 4.8 | 9.7 | 0.00 | 1.14 | 0.13 | 72 | 1010.3 |
| 20260905214019 | 31 | 203 | 3.2 | 6.4 | 0.00 | 1.14 | 0.13 | 73 | 1010.3 |
| 20260905213019 | 31 | 203 | 4.8 | 8.0 | 0.00 | 1.14 | 0.13 | 73 | 1010.5 |
| 20260905212019 | 31 | 203 | 3.2 | 8.0 | 0.00 | 1.14 | 0.13 | 74 | 1010.6 |
| 20260905211019 | 30 | 203 | 4.8 | 9.7 | 0.00 | 1.14 | 0.13 | 74 | 1010.5 |
| 20260905210019 | 30 | 203 | 6.4 | 9.7 | 0.00 | 1.14 | 0.13 | 75 | 1010.5 |
| 20260905205019 | 30 | 203 | 8.0 | 11.3 | 0.00 | 1.14 | 0.13 | 74 | 1010.6 |
| 20260905204019 | 31 | 203 | 8.0 | 14.5 | 0.00 | 1.14 | 0.13 | 74 | 1010.6 |
| 20260905203020 | 31 | 203 | 8.0 | 12.9 | 0.00 | 1.14 | 0.13 | 73 | 1010.4 |
| 20260905202019 | 31 | 203 | 8.0 | 14.5 | 0.00 | 1.14 | 0.13 | 72 | 1010.4 |
| 20260905201019 | 31 | 203 | 1.6 | 4.8 | 0.00 | 1.14 | 0.13 | 70 | 1010.4 |
| 20260905200019 | 31 | 225 | 3.2 | 6.4 | 0.00 | 1.14 | 0.13 | 69 | 1010.7 |
| 20260905195019 | 31 | 270 | 4.8 | 11.3 | 0.00 | 1.14 | 0.13 | 68 | 1010.8 |
| 20260905194019 | 31 | 270 | 3.2 | 8.0 | 0.00 | 1.14 | 0.13 | 68 | 1010.9 |
| 20260905193019 | 32 | 293 | 3.2 | 9.7 | 0.00 | 1.14 | 0.13 | 67 | 1010.5 |
| 20260905192019 | 32 | 248 | 3.2 | 11.3 | 0.00 | 1.14 | 0.13 | 69 | 1010.8 |
| 20260905191019 | 31 | 293 | 4.8 | 11.3 | 0.00 | 1.14 | 0.13 | 70 | 1011.4 |
| 20260905190019 | 31 | 270 | 3.2 | 12.9 | 0.00 | 1.14 | 0.13 | 71 | 1011.3 |
| 20260905185019 | 31 | 270 | 3.2 | 9.7 | 0.00 | 1.14 | 0.13 | 74 | 1011.1 |
| 20260905184019 | 30 | 0 | 4.8 | 9.7 | 0.00 | 1.14 | 0.13 | 75 | 1011.3 |
| 20260905183039 | 30 | 23 | 3.2 | 8.0 | 0.00 | 1.14 | 0.13 | 75 | 1011.3 |
| 20260905182019 | 30 | 0 | 1.6 | 6.4 | 0.00 | 1.14 | 0.13 | 76 | 1011.5 |
| 20260905181019 | 30 | 203 | 1.6 | 4.8 | 0.03 | 1.14 | 0.13 | 76 | 1011.7 |
| 20260905180019 | 28 | 248 | 1.6 | 4.8 | 0.13 | 1.14 | 0.13 | 78 | 1011.9 |
| 20260905175019 | 28 | 270 | 3.2 | 6.4 | 0.13 | 1.14 | 0.13 | 80 | 1011.9 |
| 20260905174019 | 28 | 315 | 4.8 | 9.7 | 0.13 | 1.14 | 0.13 | 83 | 1012.0 |
| 20260905173019 | 28 | 0.0 | 3.2 | 0.13 | 1.14 | 0.13 | 83 | 1012.1 | |
| 20260905172039 | 28 | 0.0 | 1.6 | 0.13 | 1.14 | 0.13 | 81 | 1012.4 | |
| 20260905171019 | 29 | 338 | 6.4 | 12.9 | 0.08 | 1.09 | 0.08 | 78 | 1012.6 |
| 20260905170059 | 30 | 0 | 11.3 | 17.7 | 0.00 | 1.02 | 0.00 | 73 | 1012.5 |
| 20260905165019 | 30 | 293 | 3.2 | 8.0 | 0.00 | 1.02 | 0.00 | 75 | 1012.6 |
| 20260905164020 | 30 | 315 | 4.8 | 9.7 | 0.00 | 1.02 | 0.00 | 74 | 1013.0 |
| 20260905163019 | 30 | 315 | 4.8 | 19.3 | 0.00 | 1.02 | 0.00 | 73 | 1013.1 |
| 20260905162019 | 30 | 315 | 4.8 | 9.7 | 0.00 | 1.02 | 0.00 | 74 | 1013.1 |
| 20260905161019 | 30 | 0 | 3.2 | 11.3 | 0.00 | 1.02 | 0.00 | 75 | 1013.2 |
| 20260905160019 | 30 | 270 | 4.8 | 8.0 | 0.00 | 1.02 | 0.00 | 76 | 1013.4 |
| 20260905155019 | 29 | 225 | 4.8 | 9.7 | 0.00 | 1.02 | 0.00 | 79 | 1013.5 |
| 20260905154019 | 29 | 293 | 4.8 | 11.3 | 0.00 | 1.02 | 0.00 | 79 | 1013.5 |
| 20260905153020 | 28 | 315 | 4.8 | 12.9 | 0.00 | 1.02 | 0.00 | 81 | 1013.6 |
| 20260905152019 | 28 | 248 | 3.2 | 9.7 | 0.00 | 1.02 | 0.00 | 82 | 1013.8 |
| 20260905151019 | 28 | 338 | 3.2 | 6.4 | 0.00 | 1.02 | 0.00 | 82 | 1013.8 |
| 20260905150039 | 28 | 338 | 6.4 | 11.3 | 0.00 | 1.02 | 0.00 | 82 | 1013.9 |
| 20260905145020 | 28 | 293 | 4.8 | 9.7 | 0.00 | 1.02 | 0.00 | 82 | 1013.8 |
| 20260905144019 | 28 | 270 | 3.2 | 8.0 | 0.00 | 1.02 | 0.00 | 82 | 1013.7 |
| 20260905143020 | 28 | 225 | 4.8 | 9.7 | 0.00 | 1.02 | 0.00 | 83 | 1013.8 |
| 20260905142019 | 27 | 270 | 4.8 | 9.7 | 0.00 | 1.02 | 0.00 | 84 | 1013.8 |
| 20260905141040 | 27 | 225 | 1.6 | 6.4 | 0.00 | 1.02 | 0.00 | 85 | 1013.7 |
| 20260905140020 | 27 | 248 | 3.2 | 8.0 | 0.00 | 1.02 | 0.00 | 86 | 1013.8 |
| 20260905135020 | 27 | 315 | 1.6 | 4.8 | 0.00 | 1.02 | 0.00 | 88 | 1013.6 |
| 20260905134020 | 26 | 248 | 3.2 | 8.0 | 0.00 | 1.02 | 0.00 | 88 | 1013.5 |
| 20260905133020 | 26 | 225 | 1.6 | 4.8 | 0.00 | 1.02 | 0.00 | 89 | 1013.6 |
| 20260905132020 | 26 | 0.0 | 3.2 | 0.00 | 1.02 | 0.00 | 89 | 1013.8 |